sensor_id;sensor_type;location;lat;lon;timestamp;P1;durP1;ratioP1;P2;durP2;ratioP2
39078;SDS011;24829;49.208;12.080;2022-10-31T00:00:19;21.27;;;8.43;;
39078;SDS011;24829;49.208;12.080;2022-10-31T00:02:45;19.08;;;7.38;;
39078;SDS011;24829;49.208;12.080;2022-10-31T00:05:10;13.07;;;7.55;;
39078;SDS011;24829;49.208;12.080;2022-10-31T00:07:36;9.00;;;8.10;;
39078;SDS011;24829;49.208;12.080;2022-10-31T00:10:02;14.02;;;7.82;;
39078;SDS011;24829;49.208;12.080;2022-10-31T00:12:27;32.90;;;9.93;;
39078;SDS011;24829;49.208;12.080;2022-10-31T00:14:53;12.32;;;7.93;;
39078;SDS011;24829;49.208;12.080;2022-10-31T00:17:18;35.10;;;9.55;;
39078;SDS011;24829;49.208;12.080;2022-10-31T00:19:44;26.02;;;8.68;;
39078;SDS011;24829;49.208;12.080;2022-10-31T00:22:09;36.50;;;9.02;;
39078;SDS011;24829;49.208;12.080;2022-10-31T00:24:35;35.95;;;9.80;;
39078;SDS011;24829;49.208;12.080;2022-10-31T00:27:01;17.80;;;8.07;;
39078;SDS011;24829;49.208;12.080;2022-10-31T00:29:26;22.80;;;7.72;;
39078;SDS011;24829;49.208;12.080;2022-10-31T00:31:52;23.42;;;8.02;;
39078;SDS011;24829;49.208;12.080;2022-10-31T00:34:17;51.20;;;8.93;;
39078;SDS011;24829;49.208;12.080;2022-10-31T00:36:43;19.30;;;8.35;;
39078;SDS011;24829;49.208;12.080;2022-10-31T00:39:09;32.78;;;7.97;;
39078;SDS011;24829;49.208;12.080;2022-10-31T00:41:34;24.02;;;7.00;;
39078;SDS011;24829;49.208;12.080;2022-10-31T00:44:00;17.55;;;7.95;;
39078;SDS011;24829;49.208;12.080;2022-10-31T00:46:25;20.63;;;8.38;;
39078;SDS011;24829;49.208;12.080;2022-10-31T00:48:51;51.33;;;8.70;;
39078;SDS011;24829;49.208;12.080;2022-10-31T00:51:17;39.83;;;8.43;;
39078;SDS011;24829;49.208;12.080;2022-10-31T00:53:42;37.65;;;7.38;;
39078;SDS011;24829;49.208;12.080;2022-10-31T00:56:08;40.92;;;7.80;;
39078;SDS011;24829;49.208;12.080;2022-10-31T00:58:33;9.98;;;5.80;;
39078;SDS011;24829;49.208;12.080;2022-10-31T01:00:59;15.88;;;5.88;;
39078;SDS011;24829;49.208;12.080;2022-10-31T01:03:26;54.95;;;7.10;;
39078;SDS011;24829;49.208;12.080;2022-10-31T01:08:25;49.78;;;7.65;;
39078;SDS011;24829;49.208;12.080;2022-10-31T01:11:02;30.35;;;6.35;;
39078;SDS011;24829;49.208;12.080;2022-10-31T01:13:52;64.80;;;7.97;;
39078;SDS011;24829;49.208;12.080;2022-10-31T01:16:18;67.45;;;7.13;;
39078;SDS011;24829;49.208;12.080;2022-10-31T01:18:46;64.53;;;8.18;;
39078;SDS011;24829;49.208;12.080;2022-10-31T01:21:13;22.70;;;6.43;;
39078;SDS011;24829;49.208;12.080;2022-10-31T01:23:43;23.45;;;5.53;;
39078;SDS011;24829;49.208;12.080;2022-10-31T01:26:13;12.45;;;6.38;;
39078;SDS011;24829;49.208;12.080;2022-10-31T01:28:46;41.30;;;7.78;;
39078;SDS011;24829;49.208;12.080;2022-10-31T01:31:15;27.67;;;6.75;;
39078;SDS011;24829;49.208;12.080;2022-10-31T01:33:42;29.33;;;6.47;;
39078;SDS011;24829;49.208;12.080;2022-10-31T01:36:12;25.35;;;6.35;;
39078;SDS011;24829;49.208;12.080;2022-10-31T01:38:40;24.30;;;7.15;;
39078;SDS011;24829;49.208;12.080;2022-10-31T01:41:05;23.60;;;7.45;;
39078;SDS011;24829;49.208;12.080;2022-10-31T01:43:42;24.52;;;7.53;;
39078;SDS011;24829;49.208;12.080;2022-10-31T01:46:20;25.55;;;7.65;;
39078;SDS011;24829;49.208;12.080;2022-10-31T01:48:51;16.40;;;7.23;;
39078;SDS011;24829;49.208;12.080;2022-10-31T01:51:18;8.95;;;6.63;;
39078;SDS011;24829;49.208;12.080;2022-10-31T01:53:47;15.80;;;7.35;;
39078;SDS011;24829;49.208;12.080;2022-10-31T01:56:16;11.10;;;7.07;;
39078;SDS011;24829;49.208;12.080;2022-10-31T01:58:42;17.67;;;6.78;;
39078;SDS011;24829;49.208;12.080;2022-10-31T02:01:10;22.30;;;7.53;;
39078;SDS011;24829;49.208;12.080;2022-10-31T02:03:38;19.83;;;7.28;;
39078;SDS011;24829;49.208;12.080;2022-10-31T02:06:05;31.08;;;7.18;;
39078;SDS011;24829;49.208;12.080;2022-10-31T02:11:04;55.63;;;7.70;;
39078;SDS011;24829;49.208;12.080;2022-10-31T02:13:31;117.03;;;9.95;;
39078;SDS011;24829;49.208;12.080;2022-10-31T02:15:59;36.20;;;7.22;;
39078;SDS011;24829;49.208;12.080;2022-10-31T02:18:26;33.95;;;6.43;;
39078;SDS011;24829;49.208;12.080;2022-10-31T02:37:51;92.93;;;9.57;;
39078;SDS011;24829;49.208;12.080;2022-10-31T02:40:28;48.05;;;8.10;;
39078;SDS011;24829;49.208;12.080;2022-10-31T02:45:58;64.40;;;8.52;;
39078;SDS011;24829;49.208;12.080;2022-10-31T02:48:40;41.63;;;8.07;;
39078;SDS011;24829;49.208;12.080;2022-10-31T02:51:09;69.95;;;8.60;;
39078;SDS011;24829;49.208;12.080;2022-10-31T02:53:36;68.53;;;8.68;;
39078;SDS011;24829;49.208;12.080;2022-10-31T02:58:35;58.88;;;9.52;;
39078;SDS011;24829;49.208;12.080;2022-10-31T03:06:32;59.95;;;8.18;;
39078;SDS011;24829;49.208;12.080;2022-10-31T03:09:01;27.00;;;7.82;;
39078;SDS011;24829;49.208;12.080;2022-10-31T03:11:37;49.70;;;8.43;;
39078;SDS011;24829;49.208;12.080;2022-10-31T03:14:22;54.83;;;8.30;;
39078;SDS011;24829;49.208;12.080;2022-10-31T03:16:55;114.13;;;11.00;;
39078;SDS011;24829;49.208;12.080;2022-10-31T03:19:43;153.63;;;13.73;;
39078;SDS011;24829;49.208;12.080;2022-10-31T03:22:16;70.60;;;8.98;;
39078;SDS011;24829;49.208;12.080;2022-10-31T03:24:47;20.67;;;8.45;;
39078;SDS011;24829;49.208;12.080;2022-10-31T03:27:17;80.10;;;9.82;;
39078;SDS011;24829;49.208;12.080;2022-10-31T03:29:46;39.88;;;7.72;;
39078;SDS011;24829;49.208;12.080;2022-10-31T03:32:16;51.58;;;7.88;;
39078;SDS011;24829;49.208;12.080;2022-10-31T03:34:46;24.77;;;7.57;;
39078;SDS011;24829;49.208;12.080;2022-10-31T03:37:14;44.55;;;7.82;;
39078;SDS011;24829;49.208;12.080;2022-10-31T03:39:43;54.08;;;8.63;;
39078;SDS011;24829;49.208;12.080;2022-10-31T03:42:12;129.32;;;11.40;;
39078;SDS011;24829;49.208;12.080;2022-10-31T03:44:41;119.10;;;11.35;;
39078;SDS011;24829;49.208;12.080;2022-10-31T03:47:16;73.22;;;9.48;;
39078;SDS011;24829;49.208;12.080;2022-10-31T03:49:41;35.38;;;7.13;;
39078;SDS011;24829;49.208;12.080;2022-10-31T03:52:18;49.10;;;8.48;;
39078;SDS011;24829;49.208;12.080;2022-10-31T03:57:44;155.20;;;20.95;;
39078;SDS011;24829;49.208;12.080;2022-10-31T04:00:22;165.45;;;13.90;;
39078;SDS011;24829;49.208;12.080;2022-10-31T04:02:56;60.78;;;11.25;;
39078;SDS011;24829;49.208;12.080;2022-10-31T04:05:25;90.47;;;9.93;;
39078;SDS011;24829;49.208;12.080;2022-10-31T04:07:53;101.53;;;12.35;;
39078;SDS011;24829;49.208;12.080;2022-10-31T04:10:21;167.82;;;13.85;;
39078;SDS011;24829;49.208;12.080;2022-10-31T04:12:50;175.75;;;13.73;;
39078;SDS011;24829;49.208;12.080;2022-10-31T04:15:20;165.80;;;14.25;;
39078;SDS011;24829;49.208;12.080;2022-10-31T04:17:48;107.47;;;11.38;;
39078;SDS011;24829;49.208;12.080;2022-10-31T04:20:17;101.47;;;12.77;;
39078;SDS011;24829;49.208;12.080;2022-10-31T04:22:43;164.55;;;12.48;;
39078;SDS011;24829;49.208;12.080;2022-10-31T04:25:09;97.75;;;11.02;;
39078;SDS011;24829;49.208;12.080;2022-10-31T04:27:35;71.90;;;12.32;;
39078;SDS011;24829;49.208;12.080;2022-10-31T04:30:00;65.72;;;9.88;;
39078;SDS011;24829;49.208;12.080;2022-10-31T04:32:26;132.90;;;12.60;;
39078;SDS011;24829;49.208;12.080;2022-10-31T04:34:51;24.25;;;5.38;;
39078;SDS011;24829;49.208;12.080;2022-10-31T04:37:17;21.33;;;4.82;;
39078;SDS011;24829;49.208;12.080;2022-10-31T04:39:42;12.90;;;4.55;;
39078;SDS011;24829;49.208;12.080;2022-10-31T04:42:08;10.20;;;4.90;;
39078;SDS011;24829;49.208;12.080;2022-10-31T04:44:33;21.02;;;5.05;;
39078;SDS011;24829;49.208;12.080;2022-10-31T04:46:59;17.75;;;5.05;;
39078;SDS011;24829;49.208;12.080;2022-10-31T04:49:24;25.27;;;4.85;;
39078;SDS011;24829;49.208;12.080;2022-10-31T04:51:50;8.20;;;4.38;;
39078;SDS011;24829;49.208;12.080;2022-10-31T04:54:15;23.77;;;4.35;;
39078;SDS011;24829;49.208;12.080;2022-10-31T04:56:41;20.92;;;5.60;;
39078;SDS011;24829;49.208;12.080;2022-10-31T04:59:07;24.70;;;5.80;;
39078;SDS011;24829;49.208;12.080;2022-10-31T05:01:32;15.20;;;6.75;;
39078;SDS011;24829;49.208;12.080;2022-10-31T05:03:58;20.10;;;7.13;;
39078;SDS011;24829;49.208;12.080;2022-10-31T05:06:23;15.70;;;6.85;;
39078;SDS011;24829;49.208;12.080;2022-10-31T05:08:49;16.05;;;6.07;;
39078;SDS011;24829;49.208;12.080;2022-10-31T05:11:14;14.75;;;6.18;;
39078;SDS011;24829;49.208;12.080;2022-10-31T05:13:40;10.07;;;6.10;;
39078;SDS011;24829;49.208;12.080;2022-10-31T05:16:06;18.13;;;5.30;;
39078;SDS011;24829;49.208;12.080;2022-10-31T05:18:31;20.35;;;5.80;;
39078;SDS011;24829;49.208;12.080;2022-10-31T05:20:57;32.58;;;5.88;;
39078;SDS011;24829;49.208;12.080;2022-10-31T05:23:22;24.60;;;6.28;;
39078;SDS011;24829;49.208;12.080;2022-10-31T05:25:48;38.97;;;6.97;;
39078;SDS011;24829;49.208;12.080;2022-10-31T05:28:13;19.70;;;5.78;;
39078;SDS011;24829;49.208;12.080;2022-10-31T05:30:39;13.57;;;5.55;;
39078;SDS011;24829;49.208;12.080;2022-10-31T05:33:04;34.75;;;5.82;;
39078;SDS011;24829;49.208;12.080;2022-10-31T05:35:31;21.10;;;6.20;;
39078;SDS011;24829;49.208;12.080;2022-10-31T05:37:58;38.40;;;7.82;;
39078;SDS011;24829;49.208;12.080;2022-10-31T05:40:24;27.48;;;6.90;;
39078;SDS011;24829;49.208;12.080;2022-10-31T05:42:52;37.65;;;8.48;;
39078;SDS011;24829;49.208;12.080;2022-10-31T05:45:19;29.13;;;8.05;;
39078;SDS011;24829;49.208;12.080;2022-10-31T05:47:52;46.28;;;8.70;;
39078;SDS011;24829;49.208;12.080;2022-10-31T05:50:19;54.00;;;8.82;;
39078;SDS011;24829;49.208;12.080;2022-10-31T05:52:45;51.25;;;8.20;;
39078;SDS011;24829;49.208;12.080;2022-10-31T05:55:10;58.70;;;8.57;;
39078;SDS011;24829;49.208;12.080;2022-10-31T05:57:36;36.72;;;8.75;;
39078;SDS011;24829;49.208;12.080;2022-10-31T06:00:02;44.35;;;7.57;;
39078;SDS011;24829;49.208;12.080;2022-10-31T06:02:29;38.45;;;7.60;;
39078;SDS011;24829;49.208;12.080;2022-10-31T06:04:59;44.10;;;7.70;;
39078;SDS011;24829;49.208;12.080;2022-10-31T06:07:25;46.65;;;8.15;;
39078;SDS011;24829;49.208;12.080;2022-10-31T06:09:50;55.60;;;7.43;;
39078;SDS011;24829;49.208;12.080;2022-10-31T06:12:16;36.45;;;8.25;;
39078;SDS011;24829;49.208;12.080;2022-10-31T06:14:41;13.65;;;6.13;;
39078;SDS011;24829;49.208;12.080;2022-10-31T06:17:07;52.40;;;7.70;;
39078;SDS011;24829;49.208;12.080;2022-10-31T06:19:32;80.47;;;8.93;;
39078;SDS011;24829;49.208;12.080;2022-10-31T06:21:58;115.22;;;9.40;;
39078;SDS011;24829;49.208;12.080;2022-10-31T06:24:23;123.07;;;9.57;;
39078;SDS011;24829;49.208;12.080;2022-10-31T06:26:49;95.85;;;8.07;;
39078;SDS011;24829;49.208;12.080;2022-10-31T06:29:14;110.13;;;8.30;;
39078;SDS011;24829;49.208;12.080;2022-10-31T06:31:40;62.33;;;6.80;;
39078;SDS011;24829;49.208;12.080;2022-10-31T06:34:06;19.08;;;6.05;;
39078;SDS011;24829;49.208;12.080;2022-10-31T06:36:31;10.23;;;5.25;;
39078;SDS011;24829;49.208;12.080;2022-10-31T06:38:57;7.82;;;5.13;;
39078;SDS011;24829;49.208;12.080;2022-10-31T06:41:22;7.68;;;5.10;;
39078;SDS011;24829;49.208;12.080;2022-10-31T06:43:48;10.65;;;5.78;;
39078;SDS011;24829;49.208;12.080;2022-10-31T06:46:13;11.05;;;6.63;;
39078;SDS011;24829;49.208;12.080;2022-10-31T06:48:42;27.40;;;8.13;;
39078;SDS011;24829;49.208;12.080;2022-10-31T06:51:08;80.93;;;12.48;;
39078;SDS011;24829;49.208;12.080;2022-10-31T06:53:34;65.10;;;7.28;;
39078;SDS011;24829;49.208;12.080;2022-10-31T06:55:59;6.32;;;4.85;;
39078;SDS011;24829;49.208;12.080;2022-10-31T06:58:25;8.80;;;6.50;;
39078;SDS011;24829;49.208;12.080;2022-10-31T07:00:50;11.57;;;6.22;;
39078;SDS011;24829;49.208;12.080;2022-10-31T07:03:16;22.35;;;5.75;;
39078;SDS011;24829;49.208;12.080;2022-10-31T07:05:42;33.40;;;6.85;;
39078;SDS011;24829;49.208;12.080;2022-10-31T07:08:09;11.07;;;5.43;;
39078;SDS011;24829;49.208;12.080;2022-10-31T07:10:37;11.60;;;5.00;;
39078;SDS011;24829;49.208;12.080;2022-10-31T07:13:04;35.15;;;5.72;;
39078;SDS011;24829;49.208;12.080;2022-10-31T07:15:35;40.92;;;6.43;;
39078;SDS011;24829;49.208;12.080;2022-10-31T07:18:03;10.73;;;4.78;;
39078;SDS011;24829;49.208;12.080;2022-10-31T07:20:30;17.13;;;8.52;;
39078;SDS011;24829;49.208;12.080;2022-10-31T07:22:56;15.30;;;8.77;;
39078;SDS011;24829;49.208;12.080;2022-10-31T07:25:21;13.77;;;6.47;;
39078;SDS011;24829;49.208;12.080;2022-10-31T07:27:47;9.77;;;6.55;;
39078;SDS011;24829;49.208;12.080;2022-10-31T07:30:13;8.07;;;5.07;;
39078;SDS011;24829;49.208;12.080;2022-10-31T07:32:41;19.95;;;11.48;;
39078;SDS011;24829;49.208;12.080;2022-10-31T07:35:12;11.32;;;7.13;;
39078;SDS011;24829;49.208;12.080;2022-10-31T07:37:39;18.65;;;8.35;;
39078;SDS011;24829;49.208;12.080;2022-10-31T07:40:06;9.65;;;6.57;;
39078;SDS011;24829;49.208;12.080;2022-10-31T07:42:40;13.07;;;6.20;;
39078;SDS011;24829;49.208;12.080;2022-10-31T07:45:07;8.30;;;4.60;;
39078;SDS011;24829;49.208;12.080;2022-10-31T07:47:38;12.02;;;4.30;;
39078;SDS011;24829;49.208;12.080;2022-10-31T07:50:09;14.68;;;5.20;;
39078;SDS011;24829;49.208;12.080;2022-10-31T07:52:36;7.53;;;4.70;;
39078;SDS011;24829;49.208;12.080;2022-10-31T07:55:02;9.25;;;4.82;;
39078;SDS011;24829;49.208;12.080;2022-10-31T07:57:28;12.70;;;5.43;;
39078;SDS011;24829;49.208;12.080;2022-10-31T07:59:54;55.67;;;7.00;;
39078;SDS011;24829;49.208;12.080;2022-10-31T08:02:19;19.80;;;5.82;;
39078;SDS011;24829;49.208;12.080;2022-10-31T08:04:45;9.07;;;4.60;;
39078;SDS011;24829;49.208;12.080;2022-10-31T08:07:11;6.95;;;4.85;;
39078;SDS011;24829;49.208;12.080;2022-10-31T08:09:37;15.82;;;5.30;;
39078;SDS011;24829;49.208;12.080;2022-10-31T08:12:02;53.78;;;6.38;;
39078;SDS011;24829;49.208;12.080;2022-10-31T08:14:28;8.80;;;5.00;;
39078;SDS011;24829;49.208;12.080;2022-10-31T08:16:54;17.80;;;5.75;;
39078;SDS011;24829;49.208;12.080;2022-10-31T08:19:19;10.88;;;5.90;;
39078;SDS011;24829;49.208;12.080;2022-10-31T08:21:45;46.20;;;5.60;;
39078;SDS011;24829;49.208;12.080;2022-10-31T08:24:11;54.50;;;7.43;;
39078;SDS011;24829;49.208;12.080;2022-10-31T08:26:36;87.50;;;8.82;;
39078;SDS011;24829;49.208;12.080;2022-10-31T08:29:02;63.00;;;8.35;;
39078;SDS011;24829;49.208;12.080;2022-10-31T08:31:28;44.33;;;7.05;;
39078;SDS011;24829;49.208;12.080;2022-10-31T08:33:54;61.75;;;7.47;;
39078;SDS011;24829;49.208;12.080;2022-10-31T08:36:20;32.92;;;7.40;;
39078;SDS011;24829;49.208;12.080;2022-10-31T08:38:46;9.60;;;5.95;;
39078;SDS011;24829;49.208;12.080;2022-10-31T08:41:12;45.50;;;8.38;;
39078;SDS011;24829;49.208;12.080;2022-10-31T08:43:38;12.13;;;7.13;;
39078;SDS011;24829;49.208;12.080;2022-10-31T08:46:04;19.48;;;7.00;;
39078;SDS011;24829;49.208;12.080;2022-10-31T08:48:30;13.35;;;6.55;;
39078;SDS011;24829;49.208;12.080;2022-10-31T08:50:57;29.75;;;9.70;;
39078;SDS011;24829;49.208;12.080;2022-10-31T08:53:23;15.13;;;11.25;;
39078;SDS011;24829;49.208;12.080;2022-10-31T08:55:50;36.65;;;21.88;;
39078;SDS011;24829;49.208;12.080;2022-10-31T08:58:16;14.52;;;7.38;;
39078;SDS011;24829;49.208;12.080;2022-10-31T09:00:44;20.85;;;5.85;;
39078;SDS011;24829;49.208;12.080;2022-10-31T09:03:11;11.32;;;6.40;;
39078;SDS011;24829;49.208;12.080;2022-10-31T09:05:42;8.00;;;5.50;;
39078;SDS011;24829;49.208;12.080;2022-10-31T09:08:08;8.18;;;6.15;;
39078;SDS011;24829;49.208;12.080;2022-10-31T09:10:34;10.20;;;6.70;;
39078;SDS011;24829;49.208;12.080;2022-10-31T09:13:03;10.02;;;7.18;;
39078;SDS011;24829;49.208;12.080;2022-10-31T09:15:31;12.15;;;7.80;;
39078;SDS011;24829;49.208;12.080;2022-10-31T09:17:58;11.80;;;7.03;;
39078;SDS011;24829;49.208;12.080;2022-10-31T09:20:23;12.48;;;7.32;;
39078;SDS011;24829;49.208;12.080;2022-10-31T09:22:55;11.75;;;7.43;;
39078;SDS011;24829;49.208;12.080;2022-10-31T09:25:22;10.88;;;7.35;;
39078;SDS011;24829;49.208;12.080;2022-10-31T09:27:47;11.10;;;7.00;;
39078;SDS011;24829;49.208;12.080;2022-10-31T09:30:13;11.40;;;7.15;;
39078;SDS011;24829;49.208;12.080;2022-10-31T09:32:38;16.75;;;8.05;;
39078;SDS011;24829;49.208;12.080;2022-10-31T09:35:04;16.40;;;6.60;;
39078;SDS011;24829;49.208;12.080;2022-10-31T09:37:30;10.95;;;7.97;;
39078;SDS011;24829;49.208;12.080;2022-10-31T09:39:55;14.05;;;8.00;;
39078;SDS011;24829;49.208;12.080;2022-10-31T09:42:25;13.57;;;8.40;;
39078;SDS011;24829;49.208;12.080;2022-10-31T09:48:17;14.65;;;7.65;;
39078;SDS011;24829;49.208;12.080;2022-10-31T09:51:03;8.43;;;7.43;;
39078;SDS011;24829;49.208;12.080;2022-10-31T09:56:07;7.13;;;6.43;;
39078;SDS011;24829;49.208;12.080;2022-10-31T09:58:45;9.40;;;6.13;;
39078;SDS011;24829;49.208;12.080;2022-10-31T10:01:19;8.45;;;6.35;;
39078;SDS011;24829;49.208;12.080;2022-10-31T10:06:51;12.07;;;5.35;;
39078;SDS011;24829;49.208;12.080;2022-10-31T10:09:18;9.68;;;5.40;;
39078;SDS011;24829;49.208;12.080;2022-10-31T10:11:51;6.57;;;4.85;;
39078;SDS011;24829;49.208;12.080;2022-10-31T10:22:10;10.63;;;5.45;;
39078;SDS011;24829;49.208;12.080;2022-10-31T10:30:02;13.57;;;6.40;;
39078;SDS011;24829;49.208;12.080;2022-10-31T10:32:43;10.45;;;5.95;;
39078;SDS011;24829;49.208;12.080;2022-10-31T10:38:08;14.15;;;6.10;;
39078;SDS011;24829;49.208;12.080;2022-10-31T10:40:47;14.30;;;5.95;;
39078;SDS011;24829;49.208;12.080;2022-10-31T10:51:28;16.08;;;8.57;;
39078;SDS011;24829;49.208;12.080;2022-10-31T10:54:01;14.43;;;8.70;;
39078;SDS011;24829;49.208;12.080;2022-10-31T10:59:39;20.55;;;9.52;;
39078;SDS011;24829;49.208;12.080;2022-10-31T11:02:16;21.35;;;11.38;;
39078;SDS011;24829;49.208;12.080;2022-10-31T11:04:44;16.48;;;9.70;;
39078;SDS011;24829;49.208;12.080;2022-10-31T11:07:14;19.05;;;10.38;;
39078;SDS011;24829;49.208;12.080;2022-10-31T11:09:40;13.40;;;9.98;;
39078;SDS011;24829;49.208;12.080;2022-10-31T11:12:58;17.25;;;9.57;;
39078;SDS011;24829;49.208;12.080;2022-10-31T11:15:02;18.40;;;9.85;;
39078;SDS011;24829;49.208;12.080;2022-10-31T11:17:34;12.43;;;8.32;;
39078;SDS011;24829;49.208;12.080;2022-10-31T11:22:30;14.35;;;8.48;;
39078;SDS011;24829;49.208;12.080;2022-10-31T11:24:55;14.60;;;7.90;;
39078;SDS011;24829;49.208;12.080;2022-10-31T11:27:22;16.55;;;8.52;;
39078;SDS011;24829;49.208;12.080;2022-10-31T11:29:50;11.73;;;7.90;;
39078;SDS011;24829;49.208;12.080;2022-10-31T11:32:20;16.52;;;7.95;;
39078;SDS011;24829;49.208;12.080;2022-10-31T11:34:48;15.10;;;7.47;;
39078;SDS011;24829;49.208;12.080;2022-10-31T11:37:27;14.50;;;7.50;;
39078;SDS011;24829;49.208;12.080;2022-10-31T11:39:56;11.88;;;6.97;;
39078;SDS011;24829;49.208;12.080;2022-10-31T11:42:27;17.70;;;7.53;;
39078;SDS011;24829;49.208;12.080;2022-10-31T11:44:59;10.65;;;7.20;;
39078;SDS011;24829;49.208;12.080;2022-10-31T11:47:31;15.02;;;9.13;;
39078;SDS011;24829;49.208;12.080;2022-10-31T11:49:57;10.18;;;7.70;;
39078;SDS011;24829;49.208;12.080;2022-10-31T11:52:34;12.98;;;9.68;;
39078;SDS011;24829;49.208;12.080;2022-10-31T11:57:54;15.15;;;10.10;;
39078;SDS011;24829;49.208;12.080;2022-10-31T12:00:28;15.80;;;9.45;;
39078;SDS011;24829;49.208;12.080;2022-10-31T12:05:53;15.02;;;9.35;;
39078;SDS011;24829;49.208;12.080;2022-10-31T12:08:21;15.20;;;8.82;;
39078;SDS011;24829;49.208;12.080;2022-10-31T12:10:55;10.25;;;8.15;;
39078;SDS011;24829;49.208;12.080;2022-10-31T12:16:36;15.80;;;8.77;;
39078;SDS011;24829;49.208;12.080;2022-10-31T12:19:17;12.63;;;8.30;;
39078;SDS011;24829;49.208;12.080;2022-10-31T12:22:16;10.73;;;7.50;;
39078;SDS011;24829;49.208;12.080;2022-10-31T12:38:49;14.13;;;9.23;;
39078;SDS011;24829;49.208;12.080;2022-10-31T12:44:05;15.85;;;10.00;;
39078;SDS011;24829;49.208;12.080;2022-10-31T12:49:25;23.10;;;8.85;;
39078;SDS011;24829;49.208;12.080;2022-10-31T12:57:55;11.13;;;8.98;;
39078;SDS011;24829;49.208;12.080;2022-10-31T13:00:26;14.45;;;7.47;;
39078;SDS011;24829;49.208;12.080;2022-10-31T13:05:29;16.63;;;8.30;;
39078;SDS011;24829;49.208;12.080;2022-10-31T13:10:39;19.20;;;10.63;;
39078;SDS011;24829;49.208;12.080;2022-10-31T13:15:45;16.52;;;10.68;;
39078;SDS011;24829;49.208;12.080;2022-10-31T13:18:26;20.42;;;11.98;;
39078;SDS011;24829;49.208;12.080;2022-10-31T13:20:57;22.23;;;11.27;;
39078;SDS011;24829;49.208;12.080;2022-10-31T13:23:32;15.60;;;11.15;;
39078;SDS011;24829;49.208;12.080;2022-10-31T13:26:01;15.93;;;12.02;;
39078;SDS011;24829;49.208;12.080;2022-10-31T13:28:36;21.65;;;11.43;;
39078;SDS011;24829;49.208;12.080;2022-10-31T13:31:09;17.15;;;10.65;;
39078;SDS011;24829;49.208;12.080;2022-10-31T13:38:55;20.23;;;11.90;;
39078;SDS011;24829;49.208;12.080;2022-10-31T13:41:48;19.98;;;12.15;;
39078;SDS011;24829;49.208;12.080;2022-10-31T13:46:49;15.55;;;11.98;;
39078;SDS011;24829;49.208;12.080;2022-10-31T13:51:53;22.08;;;12.60;;
39078;SDS011;24829;49.208;12.080;2022-10-31T13:54:50;21.05;;;12.10;;
39078;SDS011;24829;49.208;12.080;2022-10-31T13:59:56;26.58;;;12.70;;
39078;SDS011;24829;49.208;12.080;2022-10-31T14:02:28;20.25;;;12.82;;
39078;SDS011;24829;49.208;12.080;2022-10-31T14:04:57;19.40;;;12.95;;
39078;SDS011;24829;49.208;12.080;2022-10-31T14:07:45;23.15;;;11.57;;
39078;SDS011;24829;49.208;12.080;2022-10-31T14:10:22;21.73;;;12.23;;
39078;SDS011;24829;49.208;12.080;2022-10-31T14:12:52;18.75;;;12.95;;
39078;SDS011;24829;49.208;12.080;2022-10-31T14:15:27;23.75;;;13.52;;
39078;SDS011;24829;49.208;12.080;2022-10-31T14:17:54;23.67;;;14.00;;
39078;SDS011;24829;49.208;12.080;2022-10-31T14:23:33;26.42;;;16.35;;
39078;SDS011;24829;49.208;12.080;2022-10-31T14:28:43;23.92;;;16.65;;
39078;SDS011;24829;49.208;12.080;2022-10-31T14:31:29;26.00;;;16.25;;
39078;SDS011;24829;49.208;12.080;2022-10-31T14:39:21;22.42;;;15.07;;
39078;SDS011;24829;49.208;12.080;2022-10-31T14:52:45;32.08;;;16.52;;
39078;SDS011;24829;49.208;12.080;2022-10-31T14:55:14;28.80;;;17.17;;
39078;SDS011;24829;49.208;12.080;2022-10-31T14:57:48;27.27;;;17.30;;
39078;SDS011;24829;49.208;12.080;2022-10-31T15:00:21;27.17;;;16.83;;
39078;SDS011;24829;49.208;12.080;2022-10-31T15:05:32;25.20;;;16.58;;
39078;SDS011;24829;49.208;12.080;2022-10-31T15:08:12;22.80;;;15.75;;
39078;SDS011;24829;49.208;12.080;2022-10-31T15:10:39;24.67;;;15.65;;
39078;SDS011;24829;49.208;12.080;2022-10-31T15:13:15;23.08;;;15.68;;
39078;SDS011;24829;49.208;12.080;2022-10-31T15:15:44;25.67;;;16.10;;
39078;SDS011;24829;49.208;12.080;2022-10-31T15:18:15;29.77;;;16.17;;
39078;SDS011;24829;49.208;12.080;2022-10-31T15:20:43;22.08;;;15.57;;
39078;SDS011;24829;49.208;12.080;2022-10-31T15:23:44;26.77;;;15.77;;
39078;SDS011;24829;49.208;12.080;2022-10-31T15:26:03;20.73;;;16.15;;
39078;SDS011;24829;49.208;12.080;2022-10-31T15:28:30;27.60;;;16.55;;
39078;SDS011;24829;49.208;12.080;2022-10-31T15:30:59;25.00;;;15.73;;
39078;SDS011;24829;49.208;12.080;2022-10-31T15:33:31;23.77;;;15.48;;
39078;SDS011;24829;49.208;12.080;2022-10-31T15:36:04;25.50;;;16.70;;
39078;SDS011;24829;49.208;12.080;2022-10-31T15:38:30;32.88;;;21.00;;
39078;SDS011;24829;49.208;12.080;2022-10-31T15:40:59;36.40;;;18.63;;
39078;SDS011;24829;49.208;12.080;2022-10-31T15:46:04;28.48;;;17.30;;
39078;SDS011;24829;49.208;12.080;2022-10-31T15:48:33;31.95;;;18.33;;
39078;SDS011;24829;49.208;12.080;2022-10-31T15:50:59;32.03;;;19.55;;
39078;SDS011;24829;49.208;12.080;2022-10-31T15:53:28;43.33;;;18.65;;
39078;SDS011;24829;49.208;12.080;2022-10-31T15:56:02;22.85;;;17.20;;
39078;SDS011;24829;49.208;12.080;2022-10-31T15:58:32;30.58;;;19.63;;
39078;SDS011;24829;49.208;12.080;2022-10-31T16:01:02;29.38;;;19.13;;
39078;SDS011;24829;49.208;12.080;2022-10-31T16:03:30;29.48;;;19.70;;
39078;SDS011;24829;49.208;12.080;2022-10-31T16:06:00;41.50;;;20.40;;
39078;SDS011;24829;49.208;12.080;2022-10-31T16:10:55;27.85;;;17.90;;
39078;SDS011;24829;49.208;12.080;2022-10-31T16:13:35;27.08;;;17.90;;
39078;SDS011;24829;49.208;12.080;2022-10-31T16:16:12;26.38;;;16.50;;
39078;SDS011;24829;49.208;12.080;2022-10-31T16:18:40;28.35;;;18.17;;
39078;SDS011;24829;49.208;12.080;2022-10-31T16:21:07;30.38;;;18.98;;
39078;SDS011;24829;49.208;12.080;2022-10-31T16:23:34;27.85;;;18.40;;
39078;SDS011;24829;49.208;12.080;2022-10-31T16:26:06;33.80;;;22.70;;
39078;SDS011;24829;49.208;12.080;2022-10-31T16:28:33;26.95;;;20.50;;
39078;SDS011;24829;49.208;12.080;2022-10-31T16:30:59;32.08;;;20.38;;
39078;SDS011;24829;49.208;12.080;2022-10-31T16:35:50;28.80;;;20.27;;
39078;SDS011;24829;49.208;12.080;2022-10-31T16:38:16;32.92;;;20.17;;
39078;SDS011;24829;49.208;12.080;2022-10-31T16:40:41;32.85;;;21.30;;
39078;SDS011;24829;49.208;12.080;2022-10-31T16:43:09;35.60;;;22.08;;
39078;SDS011;24829;49.208;12.080;2022-10-31T16:45:37;36.00;;;23.33;;
39078;SDS011;24829;49.208;12.080;2022-10-31T16:48:13;32.30;;;21.10;;
39078;SDS011;24829;49.208;12.080;2022-10-31T16:50:42;34.70;;;21.35;;
39078;SDS011;24829;49.208;12.080;2022-10-31T16:53:09;27.20;;;20.23;;
39078;SDS011;24829;49.208;12.080;2022-10-31T16:55:40;31.75;;;20.15;;
39078;SDS011;24829;49.208;12.080;2022-10-31T16:58:12;31.55;;;20.15;;
39078;SDS011;24829;49.208;12.080;2022-10-31T17:00:50;33.90;;;21.48;;
39078;SDS011;24829;49.208;12.080;2022-10-31T17:03:17;34.65;;;20.63;;
39078;SDS011;24829;49.208;12.080;2022-10-31T17:05:43;31.58;;;20.92;;
39078;SDS011;24829;49.208;12.080;2022-10-31T17:08:08;30.80;;;20.48;;
39078;SDS011;24829;49.208;12.080;2022-10-31T17:10:34;31.17;;;21.92;;